Terminal Aerodrome Forecast
Issued by NWS

Current Version | Previous Version | Graphics & Text | Print | Product List | Glossary On
Versions: 1 2 3 4 5 6 7 8 9 10 11 12 13 14
000
FTUS41 KRNK 280524
TAFLWB
TAF
KLWB 280524Z 2806/2906 00000KT P6SM SKC
     FM280800 00000KT 1/4SM FG OVC001
     FM281300 19005KT P6SM SCT050=

USA.gov is the U.S. government's official web portal to all federal, state and local government web resources and services.